createdAt,value
2019-03-16T00:00:44.316Z,19.70
2019-03-16T00:03:14.490Z,15.97
2019-03-16T00:05:44.396Z,14.30
2019-03-16T00:08:14.246Z,19.67
2019-03-16T00:10:44.148Z,14.90
2019-03-16T00:13:16.109Z,14.37
2019-03-16T00:15:46.390Z,16.50
2019-03-16T00:18:16.709Z,10.67
2019-03-16T00:20:46.675Z,11.80
2019-03-16T00:23:16.563Z,9.53
2019-03-16T00:25:46.418Z,13.03
2019-03-16T00:28:16.589Z,10.03
2019-03-16T00:30:46.689Z,16.40
2019-03-16T00:33:16.602Z,11.50
2019-03-16T00:35:46.436Z,11.23
2019-03-16T00:38:16.442Z,20.80
2019-03-16T00:40:46.393Z,18.50
2019-03-16T00:43:16.312Z,9.70
2019-03-16T00:45:46.513Z,14.60
2019-03-16T00:48:16.329Z,13.93
2019-03-16T00:50:46.199Z,19.07
2019-03-16T00:53:16.084Z,12.13
2019-03-16T00:55:45.931Z,8.97
2019-03-16T00:58:16.129Z,20.33
2019-03-16T01:00:46.040Z,10.40
2019-03-16T01:03:16.176Z,11.07
2019-03-16T01:05:46.029Z,13.30
2019-03-16T01:08:16.255Z,9.03
2019-03-16T01:10:46.167Z,11.70
2019-03-16T01:13:16.330Z,9.67
2019-03-16T01:15:46.223Z,18.30
2019-03-16T01:18:16.102Z,12.27
2019-03-16T01:20:46.015Z,13.33
2019-03-16T01:23:17.586Z,15.53
2019-03-16T01:25:48.301Z,18.70
2019-03-16T01:28:18.214Z,18.00
2019-03-16T01:30:48.717Z,11.17
2019-03-16T01:33:19.183Z,15.33
2019-03-16T01:35:49.065Z,10.33
2019-03-16T01:38:18.886Z,14.80
2019-03-16T01:40:49.196Z,8.50
2019-03-16T01:43:19.142Z,18.13
2019-03-16T01:45:48.997Z,12.30
2019-03-16T01:48:19.178Z,13.13
2019-03-16T01:50:49.122Z,18.23
2019-03-16T01:53:19.381Z,12.13
2019-03-16T01:55:49.297Z,9.43
2019-03-16T01:58:19.445Z,18.20
2019-03-16T02:00:49.372Z,13.20
2019-03-16T02:03:19.216Z,11.47
2019-03-16T02:05:49.122Z,10.07
2019-03-16T02:08:19.607Z,13.67
2019-03-16T02:10:49.719Z,11.93
2019-03-16T02:13:19.822Z,14.50
2019-03-16T02:15:50.087Z,12.47
2019-03-16T02:18:19.958Z,11.80
2019-03-16T02:20:50.437Z,10.27
2019-03-16T02:23:21.030Z,10.57
2019-03-16T02:25:51.029Z,11.37
2019-03-16T02:28:21.183Z,15.10
2019-03-16T02:30:51.077Z,10.60
2019-03-16T02:33:20.969Z,18.40
2019-03-16T02:35:51.214Z,7.00
2019-03-16T02:38:21.988Z,9.57
2019-03-16T02:40:51.855Z,16.10
2019-03-16T02:43:22.446Z,10.33
2019-03-16T02:45:52.361Z,14.73
2019-03-16T02:48:22.856Z,18.00
2019-03-16T02:50:52.743Z,12.67
2019-03-16T02:53:23.228Z,17.00
2019-03-16T02:55:53.114Z,14.03
2019-03-16T02:58:22.962Z,15.93
2019-03-16T03:00:53.160Z,14.07
2019-03-16T03:03:29.891Z,20.87
2019-03-16T03:05:55.473Z,10.23
2019-03-16T03:08:25.578Z,16.53
2019-03-16T03:10:55.551Z,12.07
2019-03-16T03:13:25.422Z,15.23
2019-03-16T03:15:55.300Z,8.13
2019-03-16T03:18:25.451Z,13.10
2019-03-16T03:20:55.427Z,11.60
2019-03-16T03:23:25.659Z,17.87
2019-03-16T03:25:55.593Z,11.00
2019-03-16T03:28:25.767Z,22.07
2019-03-16T03:30:55.668Z,17.93
2019-03-16T03:33:25.537Z,10.50
2019-03-16T03:35:55.451Z,10.30
2019-03-16T03:38:25.676Z,17.13
2019-03-16T03:40:55.939Z,14.83
2019-03-16T03:43:25.905Z,13.13
2019-03-16T03:45:55.785Z,10.77
2019-03-16T03:48:26.036Z,19.83
2019-03-16T03:50:55.892Z,17.40
2019-03-16T03:53:26.055Z,14.60
2019-03-16T03:55:55.887Z,7.57
2019-03-16T03:58:25.874Z,7.00
2019-03-16T04:00:55.777Z,12.20
2019-03-16T04:03:26.303Z,19.13
2019-03-16T04:05:56.542Z,8.10
2019-03-16T04:08:26.404Z,11.70
2019-03-16T04:10:57.385Z,9.20
2019-03-16T04:13:27.322Z,16.80
2019-03-16T04:15:57.164Z,24.20
2019-03-16T04:18:27.364Z,11.10
2019-03-16T04:20:57.909Z,19.23
2019-03-16T04:23:28.077Z,13.60
2019-03-16T04:25:58.347Z,12.97
2019-03-16T04:28:28.562Z,11.27
2019-03-16T04:30:58.677Z,20.00
2019-03-16T04:33:28.538Z,17.27
2019-03-16T04:35:58.416Z,13.90
2019-03-16T04:38:28.647Z,20.67
2019-03-16T04:40:58.953Z,13.53
2019-03-16T04:43:29.085Z,14.73
2019-03-16T04:45:59.321Z,9.03
2019-03-16T04:48:29.524Z,12.30
2019-03-16T04:50:59.438Z,23.03
2019-03-16T04:53:29.349Z,18.13
2019-03-16T04:55:59.242Z,11.13
2019-03-16T04:58:29.123Z,12.43
2019-03-16T05:00:59.308Z,13.93
2019-03-16T05:03:29.208Z,7.90
2019-03-16T05:05:59.048Z,14.60
2019-03-16T05:08:28.995Z,12.47
2019-03-16T05:10:58.956Z,14.67
2019-03-16T05:13:30.256Z,14.67
2019-03-16T05:16:00.209Z,13.87
2019-03-16T05:18:30.467Z,10.97
2019-03-16T05:21:00.306Z,9.40
2019-03-16T05:23:30.479Z,9.73
2019-03-16T05:26:00.764Z,12.40
2019-03-16T05:28:30.620Z,6.27
2019-03-16T05:31:00.494Z,10.07
2019-03-16T05:33:31.234Z,8.87
2019-03-16T05:36:02.913Z,7.73
2019-03-16T05:38:34.330Z,10.30
2019-03-16T05:41:04.505Z,10.00
2019-03-16T05:43:39.698Z,7.50
2019-03-16T05:46:10.338Z,13.90
2019-03-16T05:48:43.871Z,13.10
2019-03-16T05:51:21.217Z,8.67
2019-03-16T05:53:51.256Z,7.80
2019-03-16T05:56:21.213Z,9.10
2019-03-16T05:58:52.127Z,9.90
2019-03-16T06:01:22.503Z,9.67
2019-03-16T06:03:53.049Z,18.77
2019-03-16T06:06:23.253Z,14.47
2019-03-16T06:08:53.738Z,18.63
2019-03-16T06:11:23.767Z,14.43
2019-03-16T06:13:53.758Z,15.13
2019-03-16T06:16:23.783Z,9.93
2019-03-16T06:18:54.606Z,11.13
2019-03-16T06:21:24.667Z,5.83
2019-03-16T06:23:57.443Z,14.37
2019-03-16T06:26:27.250Z,17.20
2019-03-16T06:28:57.543Z,12.60
2019-03-16T06:31:27.855Z,12.67
2019-03-16T06:33:58.222Z,10.37
2019-03-16T06:36:28.313Z,16.37
2019-03-16T06:38:58.360Z,17.87
2019-03-16T06:41:28.502Z,15.00
2019-03-16T06:43:58.554Z,16.93
2019-03-16T06:46:29.060Z,17.73
2019-03-16T06:48:59.571Z,10.17
2019-03-16T06:51:29.704Z,10.90
2019-03-16T06:53:59.985Z,6.97
2019-03-16T06:56:30.624Z,16.00
2019-03-16T06:59:00.496Z,8.73
2019-03-16T07:01:30.359Z,10.23
2019-03-16T07:04:00.727Z,15.30
2019-03-16T07:06:30.940Z,17.67
2019-03-16T07:09:01.088Z,13.67
2019-03-16T07:11:31.008Z,13.77
2019-03-16T07:14:01.303Z,14.57
2019-03-16T07:16:31.572Z,11.40
2019-03-16T07:19:01.936Z,12.40
2019-03-16T07:21:33.168Z,9.10
2019-03-16T07:24:03.504Z,9.63
2019-03-16T07:26:33.884Z,12.13
2019-03-16T07:29:03.928Z,14.30
2019-03-16T07:31:34.450Z,15.20
2019-03-16T07:34:04.437Z,15.57
2019-03-16T07:36:36.259Z,13.07
2019-03-16T07:39:08.224Z,15.43
2019-03-16T07:41:38.827Z,9.77
2019-03-16T07:44:09.097Z,16.90
2019-03-16T07:46:39.268Z,12.43
2019-03-16T07:49:09.449Z,13.63
2019-03-16T07:51:39.540Z,9.77
2019-03-16T07:54:09.704Z,12.63
2019-03-16T07:56:39.847Z,7.93
2019-03-16T07:59:09.800Z,11.03
2019-03-16T08:01:39.726Z,13.43
2019-03-16T08:04:09.992Z,9.77
2019-03-16T08:06:39.906Z,13.17
2019-03-16T08:09:09.967Z,10.47
2019-03-16T08:11:39.848Z,6.20
2019-03-16T08:14:09.941Z,14.40
2019-03-16T08:16:39.817Z,5.97
2019-03-16T08:19:09.671Z,7.60
2019-03-16T08:21:39.540Z,6.23
2019-03-16T08:24:09.359Z,4.83
2019-03-16T08:26:39.301Z,12.87
2019-03-16T08:29:09.190Z,6.33
2019-03-16T08:31:39.110Z,9.60
2019-03-16T08:34:09.252Z,5.00
2019-03-16T08:36:39.142Z,4.60
2019-03-16T08:39:09.218Z,4.60
2019-03-16T08:41:39.404Z,6.40
2019-03-16T08:44:09.323Z,7.43
2019-03-16T08:46:39.201Z,5.43
2019-03-16T08:49:09.043Z,8.33
2019-03-16T08:51:38.940Z,6.97
2019-03-16T08:54:09.106Z,5.57
2019-03-16T08:56:39.732Z,4.10
2019-03-16T08:59:09.954Z,4.37
2019-03-16T09:01:39.793Z,7.47
2019-03-16T09:04:09.621Z,5.90
2019-03-16T09:06:39.720Z,6.23
2019-03-16T09:09:09.561Z,2.30
2019-03-16T09:11:39.429Z,6.60
2019-03-16T09:14:09.295Z,4.23
2019-03-16T09:16:39.442Z,3.03
2019-03-16T09:19:09.362Z,10.30
2019-03-16T09:21:41.293Z,4.27
2019-03-16T09:24:11.667Z,2.17
2019-03-16T09:26:41.651Z,1.33
2019-03-16T09:29:15.216Z,7.20
2019-03-16T09:31:43.112Z,2.67
2019-03-16T09:34:12.985Z,4.40
2019-03-16T09:36:43.133Z,5.00
2019-03-16T09:39:12.994Z,1.73
2019-03-16T09:41:43.169Z,3.20
2019-03-16T09:44:13.645Z,6.77
2019-03-16T09:46:44.171Z,2.80
2019-03-16T09:49:14.153Z,6.10
2019-03-16T09:51:45.648Z,1.93
2019-03-16T09:54:15.529Z,2.40
2019-03-16T09:56:45.650Z,1.37
2019-03-16T09:59:15.846Z,3.83
2019-03-16T10:01:46.349Z,6.90
2019-03-16T10:04:16.609Z,3.07
2019-03-16T10:06:46.504Z,4.00
2019-03-16T10:09:16.340Z,9.43
2019-03-16T10:11:46.707Z,1.70
2019-03-16T10:14:16.582Z,3.93
2019-03-16T10:16:46.404Z,3.27
2019-03-16T10:19:16.340Z,7.63
2019-03-16T10:21:46.172Z,1.97
2019-03-16T10:24:16.034Z,3.17
2019-03-16T10:26:46.173Z,2.87
2019-03-16T10:29:16.028Z,3.17
2019-03-16T10:31:46.084Z,1.23
2019-03-16T10:34:16.342Z,1.93
2019-03-16T10:36:46.502Z,1.60
2019-03-16T10:39:16.323Z,3.27
2019-03-16T10:41:46.166Z,4.03
2019-03-16T10:44:16.408Z,4.03
2019-03-16T10:46:46.672Z,3.20
2019-03-16T10:49:16.892Z,1.60
2019-03-16T10:51:46.951Z,1.67
2019-03-16T10:54:17.060Z,2.00
2019-03-16T10:56:46.917Z,1.90
2019-03-16T10:59:17.173Z,3.10
2019-03-16T11:01:47.042Z,2.20
2019-03-16T11:04:17.256Z,2.00
2019-03-16T11:06:47.112Z,2.73
2019-03-16T11:09:17.376Z,1.40
2019-03-16T11:11:47.253Z,1.83
2019-03-16T11:14:17.230Z,1.00
2019-03-16T11:16:47.486Z,1.10
2019-03-16T11:19:17.329Z,0.90
2019-03-16T11:21:47.184Z,0.93
2019-03-16T11:24:17.258Z,3.37
2019-03-16T11:26:47.417Z,0.80
2019-03-16T11:29:17.371Z,2.33
2019-03-16T11:31:47.559Z,2.87
2019-03-16T11:34:17.794Z,0.73
2019-03-16T11:36:47.701Z,0.70
2019-03-16T11:39:17.680Z,1.07
2019-03-16T11:41:47.501Z,0.90
2019-03-16T11:44:17.451Z,1.33
2019-03-16T11:46:47.577Z,2.60
2019-03-16T11:49:17.546Z,1.37
2019-03-16T11:51:47.612Z,1.20
2019-03-16T11:54:17.778Z,1.37
2019-03-16T11:56:48.128Z,0.90
2019-03-16T11:59:21.898Z,1.10
2019-03-16T12:01:50.518Z,1.67
2019-03-16T12:04:20.478Z,1.80
2019-03-16T12:06:50.351Z,1.33
2019-03-16T12:09:20.450Z,2.40
2019-03-16T12:11:51.362Z,2.70
2019-03-16T12:14:21.350Z,1.93
2019-03-16T12:16:51.995Z,4.13
2019-03-16T12:19:22.336Z,2.30
2019-03-16T12:21:52.397Z,3.70
2019-03-16T12:24:22.279Z,7.40
2019-03-16T12:26:52.245Z,5.70
2019-03-16T12:29:33.385Z,5.67
2019-03-16T12:31:54.751Z,6.40
2019-03-16T12:34:24.941Z,5.40
2019-03-16T12:36:54.800Z,5.83
2019-03-16T12:39:24.998Z,4.83
2019-03-16T12:41:55.209Z,4.30
2019-03-16T12:44:25.334Z,8.17
2019-03-16T12:46:55.224Z,6.30
2019-03-16T12:49:25.064Z,5.60
2019-03-16T12:51:55.567Z,29.50
2019-03-16T12:54:25.417Z,11.90
2019-03-16T12:56:55.607Z,9.73
2019-03-16T12:59:26.150Z,6.83
2019-03-16T13:01:56.386Z,8.27
2019-03-16T13:04:26.258Z,9.27
2019-03-16T13:06:56.457Z,11.57
2019-03-16T13:09:26.382Z,10.17
2019-03-16T13:11:56.524Z,11.40
2019-03-16T13:14:26.411Z,11.57
2019-03-16T13:16:56.700Z,11.53
2019-03-16T13:19:26.565Z,13.07
2019-03-16T13:21:56.659Z,12.73
2019-03-16T13:24:26.936Z,10.03
2019-03-16T13:26:57.000Z,11.50
2019-03-16T13:29:26.938Z,9.00
2019-03-16T13:31:57.045Z,10.57
2019-03-16T13:34:27.228Z,10.13
2019-03-16T13:36:57.996Z,8.73
2019-03-16T13:39:28.221Z,8.97
2019-03-16T13:41:58.067Z,8.47
2019-03-16T13:44:27.892Z,7.70
2019-03-16T13:46:57.747Z,7.53
2019-03-16T13:49:28.469Z,6.03
2019-03-16T13:51:58.658Z,7.93
2019-03-16T13:54:28.783Z,6.07
2019-03-16T13:56:58.755Z,6.57
2019-03-16T13:59:28.699Z,6.77
2019-03-16T14:01:59.128Z,6.10
2019-03-16T14:04:29.163Z,5.73
2019-03-16T14:06:59.046Z,5.93
2019-03-16T14:09:29.415Z,5.57
2019-03-16T14:11:59.571Z,6.63
2019-03-16T14:14:29.837Z,6.13
2019-03-16T14:16:59.856Z,7.00
2019-03-16T14:19:29.781Z,5.43
2019-03-16T14:21:59.973Z,5.50
2019-03-16T14:24:29.848Z,6.30
2019-03-16T14:27:00.229Z,6.30
2019-03-16T14:29:30.200Z,5.97
2019-03-16T14:32:00.331Z,5.80
2019-03-16T14:34:31.113Z,5.70
2019-03-16T14:37:00.964Z,8.30
2019-03-16T14:39:31.507Z,5.47
2019-03-16T14:42:01.726Z,4.50
2019-03-16T14:44:32.723Z,4.53
2019-03-16T14:47:02.622Z,4.23
2019-03-16T14:49:32.931Z,4.50
2019-03-16T14:52:03.385Z,4.30
2019-03-16T14:54:33.622Z,4.60
2019-03-16T14:57:03.552Z,4.07
2019-03-16T14:59:33.502Z,4.27
2019-03-16T15:02:03.520Z,4.23
2019-03-16T15:04:33.441Z,3.87
2019-03-16T15:07:03.384Z,4.13
2019-03-16T15:09:33.469Z,4.53
2019-03-16T15:12:03.650Z,4.43
2019-03-16T15:14:33.514Z,7.17
2019-03-16T15:17:03.399Z,3.53
2019-03-16T15:19:33.580Z,4.27
2019-03-16T15:22:03.442Z,4.23
2019-03-16T15:24:33.704Z,3.93
2019-03-16T15:27:04.231Z,3.50
2019-03-16T15:29:34.619Z,4.20
2019-03-16T15:32:04.508Z,3.43
2019-03-16T15:34:34.388Z,3.83
2019-03-16T15:37:04.488Z,4.10
2019-03-16T15:39:34.450Z,5.07
2019-03-16T15:42:23.539Z,3.50
2019-03-16T15:44:53.437Z,3.13
2019-03-16T15:47:23.286Z,2.90
2019-03-16T15:49:53.540Z,3.27
2019-03-16T15:52:23.715Z,2.73
2019-03-16T15:54:53.596Z,2.93
2019-03-16T15:57:23.499Z,2.27
2019-03-16T15:59:53.568Z,2.30
2019-03-16T16:02:23.848Z,2.80
2019-03-16T16:04:53.728Z,2.33
2019-03-16T16:07:23.775Z,5.47
2019-03-16T16:09:53.880Z,6.90
2019-03-16T16:12:23.729Z,5.43
2019-03-16T16:14:53.825Z,3.50
2019-03-16T16:17:23.678Z,4.10
2019-03-16T16:19:53.823Z,2.37
2019-03-16T16:22:23.771Z,2.20
2019-03-16T16:24:53.607Z,2.07
2019-03-16T16:27:24.149Z,2.50
2019-03-16T16:29:54.192Z,2.60
2019-03-16T16:32:24.732Z,2.90
2019-03-16T16:34:54.571Z,2.33
2019-03-16T16:37:24.454Z,2.60
2019-03-16T16:39:54.300Z,1.90
2019-03-16T16:42:24.487Z,1.77
2019-03-16T16:44:54.707Z,1.50
2019-03-16T16:47:24.845Z,2.30
2019-03-16T16:49:54.746Z,1.73
2019-03-16T16:52:24.634Z,2.40
2019-03-16T16:55:46.293Z,1.33
2019-03-16T16:58:16.155Z,1.63
2019-03-16T17:00:46.629Z,1.80
2019-03-16T17:03:16.511Z,1.53
2019-03-16T17:05:47.000Z,2.33
2019-03-16T17:08:17.507Z,1.80
2019-03-16T17:10:47.493Z,1.73
2019-03-16T17:13:17.645Z,1.70
2019-03-16T17:15:47.607Z,1.30
2019-03-16T17:18:17.463Z,2.60
2019-03-16T17:20:47.606Z,1.93
2019-03-16T17:23:17.530Z,2.10
2019-03-16T17:25:47.440Z,3.40
2019-03-16T17:28:17.475Z,1.73
2019-03-16T17:30:49.455Z,2.00
2019-03-16T17:33:19.456Z,2.57
2019-03-16T17:35:49.295Z,2.03
2019-03-16T17:38:19.163Z,2.60
2019-03-16T17:40:49.673Z,1.93
2019-03-16T17:43:19.929Z,3.97
2019-03-16T17:45:49.831Z,5.57
2019-03-16T17:48:20.374Z,1.90
2019-03-16T17:50:50.441Z,1.93
2019-03-16T17:53:20.647Z,1.80
2019-03-16T17:55:50.582Z,1.20
2019-03-16T17:58:21.226Z,4.13
2019-03-16T18:00:51.908Z,1.70
2019-03-16T18:03:21.943Z,2.40
2019-03-16T18:05:52.224Z,2.73
2019-03-16T18:08:22.193Z,2.30
2019-03-16T18:10:52.085Z,3.50
2019-03-16T18:13:22.660Z,1.50
2019-03-16T18:15:52.578Z,1.50
2019-03-16T18:18:22.845Z,1.53
2019-03-16T18:20:53.146Z,1.37
2019-03-16T18:23:23.362Z,2.67
2019-03-16T18:25:53.400Z,1.10
2019-03-16T18:28:23.584Z,2.73
2019-03-16T18:30:54.451Z,2.90
2019-03-16T18:33:25.167Z,1.57
2019-03-16T18:35:55.759Z,3.60
2019-03-16T18:38:26.431Z,1.40
2019-03-16T18:41:36.066Z,1.20
2019-03-16T18:44:05.909Z,1.30
2019-03-16T18:46:35.786Z,2.70
2019-03-16T18:49:05.673Z,1.40
2019-03-16T18:51:35.602Z,1.10
2019-03-16T18:54:06.080Z,1.20
2019-03-16T18:56:36.283Z,1.40
2019-03-16T18:59:09.123Z,2.00
2019-03-16T19:01:37.871Z,1.73
2019-03-16T19:04:07.743Z,2.70
2019-03-16T19:06:37.614Z,1.93
2019-03-16T19:09:09.591Z,1.47
2019-03-16T19:11:39.746Z,1.53
2019-03-16T19:14:09.653Z,1.50
2019-03-16T19:16:39.489Z,1.23
2019-03-16T19:19:09.322Z,1.03
2019-03-16T19:21:39.272Z,0.90
2019-03-16T19:24:09.133Z,0.90
2019-03-16T19:26:39.085Z,0.83
2019-03-16T19:29:08.966Z,5.20
2019-03-16T19:31:39.480Z,0.83
2019-03-16T19:34:09.720Z,1.17
2019-03-16T19:36:40.634Z,1.00
2019-03-16T19:39:10.758Z,1.30
2019-03-16T19:41:41.791Z,2.00
2019-03-16T19:44:49.017Z,2.30
2019-03-16T19:47:18.876Z,1.80
2019-03-16T19:49:48.743Z,1.27
2019-03-16T19:52:18.705Z,2.03
2019-03-16T19:54:48.593Z,1.20
2019-03-16T19:57:18.469Z,2.33
2019-03-16T19:59:48.346Z,4.20
2019-03-16T20:02:18.184Z,1.30
2019-03-16T20:04:48.087Z,2.00
2019-03-16T20:07:19.504Z,2.63
2019-03-16T20:09:49.883Z,4.10
2019-03-16T20:12:19.736Z,3.70
2019-03-16T20:14:49.716Z,1.43
2019-03-16T20:17:19.563Z,3.53
2019-03-16T20:19:49.447Z,2.40
2019-03-16T20:22:19.664Z,2.07
2019-03-16T20:24:49.608Z,2.60
2019-03-16T20:27:19.456Z,2.20
2019-03-16T20:29:49.643Z,2.20
2019-03-16T20:32:19.565Z,6.23
2019-03-16T20:34:49.702Z,2.13
2019-03-16T20:37:19.905Z,2.00
2019-03-16T20:39:50.113Z,2.40
2019-03-16T20:42:20.012Z,2.30
2019-03-16T20:44:50.047Z,1.90
2019-03-16T20:47:19.919Z,1.70
2019-03-16T20:49:49.813Z,2.30
2019-03-16T20:52:19.744Z,3.70
2019-03-16T20:54:49.731Z,4.50
2019-03-16T20:57:19.611Z,3.40
2019-03-16T20:59:49.812Z,2.47
2019-03-16T21:02:19.797Z,2.73
2019-03-16T21:04:49.692Z,4.70
2019-03-16T21:07:19.562Z,2.47
2019-03-16T21:09:49.465Z,6.97
2019-03-16T21:12:19.412Z,2.80
2019-03-16T21:14:49.602Z,5.73
2019-03-16T21:17:19.614Z,3.57
2019-03-16T21:19:49.500Z,4.23
2019-03-16T21:22:19.384Z,2.77
2019-03-16T21:24:49.244Z,7.90
2019-03-16T21:27:20.808Z,3.80
2019-03-16T21:29:51.033Z,2.90
2019-03-16T21:32:20.919Z,7.00
2019-03-16T21:34:51.171Z,6.07
2019-03-16T21:37:21.142Z,2.90
2019-03-16T21:39:51.345Z,2.37
2019-03-16T21:42:21.637Z,2.27
2019-03-16T21:44:51.706Z,3.10
2019-03-16T21:47:21.908Z,3.30
2019-03-16T21:49:51.782Z,3.70
2019-03-16T21:52:21.657Z,7.10
2019-03-16T21:54:51.824Z,2.80
2019-03-16T21:57:21.843Z,4.60
2019-03-16T21:59:51.892Z,2.70
2019-03-16T22:02:21.725Z,4.10
2019-03-16T22:04:51.626Z,7.13
2019-03-16T22:07:21.545Z,2.97
2019-03-16T22:09:51.453Z,3.17
2019-03-16T22:12:21.655Z,3.27
2019-03-16T22:14:51.721Z,7.77
2019-03-16T22:17:21.582Z,3.30
2019-03-16T22:19:51.456Z,2.80
2019-03-16T22:22:53.392Z,3.30
2019-03-16T22:25:23.587Z,5.30
2019-03-16T22:27:53.792Z,3.30
2019-03-16T22:30:23.699Z,3.63
2019-03-16T22:32:53.606Z,5.57
2019-03-16T22:35:23.522Z,4.80
2019-03-16T22:37:53.352Z,8.03
2019-03-16T22:40:23.553Z,3.00
2019-03-16T22:42:54.248Z,4.60
2019-03-16T22:45:24.130Z,3.60
2019-03-16T22:47:54.005Z,5.40
2019-03-16T22:50:23.875Z,3.37
2019-03-16T22:52:53.746Z,4.00
2019-03-16T22:55:23.569Z,2.60
2019-03-16T22:57:53.529Z,3.20
2019-03-16T23:00:26.372Z,3.70
2019-03-16T23:02:56.632Z,8.33
2019-03-16T23:05:26.537Z,3.53
2019-03-16T23:07:56.416Z,3.40
2019-03-16T23:10:26.328Z,8.27
2019-03-16T23:12:56.281Z,3.60
2019-03-16T23:15:26.236Z,12.87
2019-03-16T23:17:56.183Z,9.07
2019-03-16T23:20:26.181Z,6.60
2019-03-16T23:22:56.136Z,8.20
2019-03-16T23:25:26.315Z,3.73
2019-03-16T23:27:56.161Z,6.00
2019-03-16T23:30:26.393Z,5.90
2019-03-16T23:32:56.533Z,4.40
2019-03-16T23:35:26.367Z,5.30
2019-03-16T23:37:56.221Z,5.73
2019-03-16T23:40:26.068Z,5.23
2019-03-16T23:42:56.366Z,3.50
2019-03-16T23:45:26.224Z,3.70
2019-03-16T23:47:56.132Z,3.20
2019-03-16T23:50:25.986Z,4.63
2019-03-16T23:52:55.908Z,5.60
2019-03-16T23:55:26.043Z,3.50
2019-03-16T23:57:56.506Z,5.33
